Menu Close Menu
Station Historical Data
Daily Summary for December 2, 2017 Units:  Both    English   Metric
« Previous Day
Next Day »
Daily Weekly Monthly Yearly Custom
  High: Low: Average:
Temperature: 65.6 °F /  18.7 °C 46.8 °F /  8.2 °C 55 °F /  12.8 °C
Dew Point: 56.1 °F /  13.4 °C 44.9 °F /  7.2 °C 50.6 °F /  10.3 °C
Humidity: 94% 68% 86%
Wind Speed: 4.6mph /  7.4km/h - 0.3mph /  0.5km/h
Wind Gust: 4.6mph /  7.4km/h - -
Wind- - SSW
Pressure: 30.24 in /  1023.9 hPa 30.13 in /  1020.2 hPa -
Precipitation: 0.00 in /  0 mm    
Historical Graphs
 
 
Tabular Data for December 2, 2017
Time Temperature Dew Point Pressure Wind Wind Speed Wind Gust Humidity Rainfall Rate (Hourly) solar Conditions
00:08 49.1 °F /  9.5 °C 47.2 °F /  8.4 °C 30.18in /  1021.9hPa Calm     93% 0.00in /  0mm WeatherDisplay:10.37 W/m2 CLR
00:14 48.9 °F /  9.4 °C 47.0 °F /  8.3 °C 30.17in /  1021.6hPa Calm     93% 0.00in /  0mm WeatherDisplay:10.37 W/m2
00:18 48.9 °F /  9.4 °C 47.0 °F /  8.3 °C 30.17in /  1021.6hPa Calm     93% 0.00in /  0mm WeatherDisplay:10.37 W/m2 CLR
00:19 48.9 °F /  9.4 °C 47.0 °F /  8.3 °C 30.17in /  1021.6hPa Calm     93% 0.00in /  0mm WeatherDisplay:10.37 W/m2
00:23 48.8 °F /  9.3 °C 46.9 °F /  8.3 °C 30.17in /  1021.6hPa Calm     93% 0.00in /  0mm WeatherDisplay:10.37 W/m2 CLR
00:28 48.6 °F /  9.2 °C 46.7 °F /  8.2 °C 30.17in /  1021.6hPa Calm     93% 0.00in /  0mm WeatherDisplay:10.37 W/m2 CLR
00:29 48.5 °F /  9.2 °C 46.6 °F /  8.1 °C 30.17in /  1021.6hPa Calm     93% 0.00in /  0mm WeatherDisplay:10.37 W/m2
00:33 48.5 °F /  9.2 °C 46.6 °F /  8.1 °C 30.17in /  1021.6hPa Calm     93% 0.00in /  0mm WeatherDisplay:10.37 W/m2 CLR
00:38 48.5 °F /  9.2 °C 46.6 °F /  8.1 °C 30.17in /  1021.6hPa Calm     93% 0.00in /  0mm WeatherDisplay:10.37 W/m2 CLR
00:39 48.5 °F /  9.2 °C 46.6 °F /  8.1 °C 30.17in /  1021.6hPa Calm     93% 0.00in /  0mm WeatherDisplay:10.37 W/m2 CLR
00:44 48.4 °F /  9.1 °C 46.5 °F /  8.1 °C 30.17in /  1021.6hPa Calm     93% 0.00in /  0mm WeatherDisplay:10.37 W/m2
00:45 48.4 °F /  9.1 °C 46.5 °F /  8.1 °C 30.17in /  1021.6hPa Calm     93% 0.00in /  0mm WeatherDisplay:10.37 W/m2 CLR
00:49 48.5 °F /  9.2 °C 46.6 °F /  8.1 °C 30.17in /  1021.6hPa Calm     93% 0.00in /  0mm WeatherDisplay:10.37 W/m2
00:54 48.7 °F /  9.3 °C 46.8 °F /  8.2 °C 30.17in /  1021.6hPa Calm     93% 0.00in /  0mm WeatherDisplay:10.37 W/m2
00:55 48.7 °F /  9.3 °C 46.8 °F /  8.2 °C 30.17in /  1021.6hPa Calm     93% 0.00in /  0mm WeatherDisplay:10.37 W/m2 CLR
00:59 48.8 °F /  9.3 °C 46.9 °F /  8.3 °C 30.17in /  1021.6hPa Calm     93% 0.00in /  0mm WeatherDisplay:10.37 W/m2
01:04 49.0 °F /  9.4 °C 47.1 °F /  8.4 °C 30.18in /  1021.9hPa Calm     93% 0.00in /  0mm WeatherDisplay:10.37 W/m2
01:05 49.0 °F /  9.4 °C 47.1 °F /  8.4 °C 30.18in /  1021.9hPa Calm     93% 0.00in /  0mm WeatherDisplay:10.37 W/m2 SCT
01:09 49.3 °F /  9.6 °C 47.6 °F /  8.7 °C 30.17in /  1021.6hPa Calm     94% 0.00in /  0mm WeatherDisplay:10.37 W/m2
01:10 49.3 °F /  9.6 °C 47.6 °F /  8.7 °C 30.17in /  1021.6hPa Calm     94% 0.00in /  0mm WeatherDisplay:10.37 W/m2 SCT
01:15 49.3 °F /  9.6 °C 47.6 °F /  8.7 °C 30.17in /  1021.6hPa Calm     94% 0.00in /  0mm WeatherDisplay:10.37 W/m2 SCT
01:19 49.3 °F /  9.6 °C 47.6 °F /  8.7 °C 30.17in /  1021.6hPa Calm     94% 0.00in /  0mm WeatherDisplay:10.37 W/m2
01:20 49.3 °F /  9.6 °C 47.6 °F /  8.7 °C 30.17in /  1021.6hPa Calm     94% 0.00in /  0mm WeatherDisplay:10.37 W/m2 SCT
01:24 49.2 °F /  9.6 °C 47.3 °F /  8.5 °C 30.17in /  1021.6hPa Calm     93% 0.00in /  0mm WeatherDisplay:10.37 W/m2
01:29 49.1 °F /  9.5 °C 47.2 °F /  8.4 °C 30.17in /  1021.6hPa Calm     93% 0.00in /  0mm WeatherDisplay:10.37 W/m2
01:31 49.1 °F /  9.5 °C 47.2 °F /  8.4 °C 30.17in /  1021.6hPa Calm     93% 0.00in /  0mm WeatherDisplay:10.37 W/m2 SCT
01:34 49.0 °F /  9.4 °C 47.1 °F /  8.4 °C 30.17in /  1021.6hPa Calm     93% 0.00in /  0mm WeatherDisplay:10.37 W/m2
01:36 48.9 °F /  9.4 °C 47.0 °F /  8.3 °C 30.17in /  1021.6hPa Calm     93% 0.00in /  0mm WeatherDisplay:10.37 W/m2 SCT
01:39 48.7 °F /  9.3 °C 46.8 °F /  8.2 °C 30.17in /  1021.6hPa Calm     93% 0.00in /  0mm WeatherDisplay:10.37 W/m2
01:41 48.7 °F /  9.3 °C 46.8 °F /  8.2 °C 30.17in /  1021.6hPa Calm     93% 0.00in /  0mm WeatherDisplay:10.37 W/m2 SCT
01:44 48.7 °F /  9.3 °C 46.8 °F /  8.2 °C 30.17in /  1021.6hPa Calm     93% 0.00in /  0mm WeatherDisplay:10.37 W/m2
01:46 48.7 °F /  9.3 °C 46.8 °F /  8.2 °C 30.17in /  1021.6hPa Calm     93% 0.00in /  0mm WeatherDisplay:10.37 W/m2 SCT
01:49 48.6 °F /  9.2 °C 46.7 °F /  8.2 °C 30.17in /  1021.6hPa Calm     93% 0.00in /  0mm WeatherDisplay:10.37 W/m2
01:51 48.6 °F /  9.2 °C 46.7 °F /  8.2 °C 30.17in /  1021.6hPa Calm     93% 0.00in /  0mm WeatherDisplay:10.37 W/m2 SCT
01:54 48.5 °F /  9.2 °C 46.6 °F /  8.1 °C 30.17in /  1021.6hPa Calm     93% 0.00in /  0mm WeatherDisplay:10.37 W/m2
01:56 48.5 °F /  9.2 °C 46.6 °F /  8.1 °C 30.17in /  1021.6hPa Calm     93% 0.00in /  0mm WeatherDisplay:10.37 W/m2 SCT
01:59 48.5 °F /  9.2 °C 46.6 °F /  8.1 °C 30.18in /  1021.9hPa Calm     93% 0.00in /  0mm WeatherDisplay:10.37 W/m2
02:01 48.5 °F /  9.2 °C 46.6 °F /  8.1 °C 30.17in /  1021.6hPa Calm     93% 0.00in /  0mm WeatherDisplay:10.37 W/m2 CLR
02:04 48.4 °F /  9.1 °C 46.5 °F /  8.1 °C 30.17in /  1021.6hPa Calm     93% 0.00in /  0mm WeatherDisplay:10.37 W/m2
02:06 48.3 °F /  9.1 °C 46.4 °F /  8 °C 30.17in /  1021.6hPa Calm     93% 0.00in /  0mm WeatherDisplay:10.37 W/m2 CLR
02:09 48.1 °F /  8.9 °C 46.2 °F /  7.9 °C 30.16in /  1021.2hPa Calm     93% 0.00in /  0mm WeatherDisplay:10.37 W/m2
02:11 48.1 °F /  8.9 °C 46.2 °F /  7.9 °C 30.16in /  1021.2hPa Calm     93% 0.00in /  0mm WeatherDisplay:10.37 W/m2 CLR
02:14 48.0 °F /  8.9 °C 46.1 °F /  7.8 °C 30.16in /  1021.2hPa Calm     93% 0.00in /  0mm WeatherDisplay:10.37 W/m2
02:19 48.1 °F /  8.9 °C 46.2 °F /  7.9 °C 30.17in /  1021.6hPa Calm     93% 0.00in /  0mm WeatherDisplay:10.37 W/m2
02:21 48.2 °F /  9 °C 46.3 °F /  7.9 °C 30.17in /  1021.6hPa Calm     93% 0.00in /  0mm WeatherDisplay:10.37 W/m2 CLR
02:24 48.3 °F /  9.1 °C 46.4 °F /  8 °C 30.17in /  1021.6hPa Calm     93% 0.00in /  0mm WeatherDisplay:10.37 W/m2
02:27 48.3 °F /  9.1 °C 46.4 °F /  8 °C 30.17in /  1021.6hPa Calm     93% 0.00in /  0mm WeatherDisplay:10.37 W/m2 CLR
02:29 48.2 °F /  9 °C 46.3 °F /  7.9 °C 30.17in /  1021.6hPa Calm     93% 0.00in /  0mm WeatherDisplay:10.37 W/m2
02:32 48.2 °F /  9 °C 46.3 °F /  7.9 °C 30.17in /  1021.6hPa Calm     93% 0.00in /  0mm WeatherDisplay:10.37 W/m2 CLR
02:34 48.1 °F /  8.9 °C 46.2 °F /  7.9 °C 30.17in /  1021.6hPa Calm     93% 0.00in /  0mm WeatherDisplay:10.37 W/m2
02:37 48.1 °F /  8.9 °C 46.2 °F /  7.9 °C 30.17in /  1021.6hPa Calm     93% 0.00in /  0mm WeatherDisplay:10.37 W/m2 CLR
02:39 48.2 °F /  9 °C 46.3 °F /  7.9 °C 30.18in /  1021.9hPa Calm     93% 0.00in /  0mm WeatherDisplay:10.37 W/m2
02:42 48.4 °F /  9.1 °C 46.8 °F /  8.2 °C 30.18in /  1021.9hPa Calm     94% 0.00in /  0mm WeatherDisplay:10.37 W/m2 CLR
02:44 48.6 °F /  9.2 °C 47.0 °F /  8.3 °C 30.18in /  1021.9hPa Calm     94% 0.00in /  0mm WeatherDisplay:10.37 W/m2
02:49 48.4 °F /  9.1 °C 46.5 °F /  8.1 °C 30.18in /  1021.9hPa Calm     93% 0.00in /  0mm WeatherDisplay:10.37 W/m2
02:52 48.3 °F /  9.1 °C 46.4 °F /  8 °C 30.17in /  1021.6hPa Calm     93% 0.00in /  0mm WeatherDisplay:10.37 W/m2 CLR
02:54 48.2 °F /  9 °C 46.3 °F /  7.9 °C 30.17in /  1021.6hPa Calm     93% 0.00in /  0mm WeatherDisplay:10.37 W/m2
02:57 48.1 °F /  8.9 °C 46.2 °F /  7.9 °C 30.17in /  1021.6hPa Calm     93% 0.00in /  0mm WeatherDisplay:10.37 W/m2 CLR
02:59 48.1 °F /  8.9 °C 46.2 °F /  7.9 °C 30.17in /  1021.6hPa Calm     93% 0.00in /  0mm WeatherDisplay:10.37 W/m2
03:03 48.0 °F /  8.9 °C 46.1 °F /  7.8 °C 30.17in /  1021.6hPa Calm     93% 0.00in /  0mm WeatherDisplay:10.37 W/m2 BKN
03:04 48.0 °F /  8.9 °C 46.1 °F /  7.8 °C 30.17in /  1021.6hPa Calm     93% 0.00in /  0mm WeatherDisplay:10.37 W/m2
03:08 48.1 °F /  8.9 °C 46.2 °F /  7.9 °C 30.17in /  1021.6hPa Calm     93% 0.00in /  0mm WeatherDisplay:10.37 W/m2 BKN
03:09 48.2 °F /  9 °C 46.3 °F /  7.9 °C 30.17in /  1021.6hPa Calm     93% 0.00in /  0mm WeatherDisplay:10.37 W/m2
03:14 48.3 °F /  9.1 °C 46.7 °F /  8.2 °C 30.17in /  1021.6hPa Calm     94% 0.00in /  0mm WeatherDisplay:10.37 W/m2
03:18 48.2 °F /  9 °C 46.3 °F /  7.9 °C 30.17in /  1021.6hPa Calm     93% 0.00in /  0mm WeatherDisplay:10.37 W/m2 BKN
03:19 48.1 °F /  8.9 °C 46.2 °F /  7.9 °C 30.17in /  1021.6hPa Calm     93% 0.00in /  0mm WeatherDisplay:10.37 W/m2
03:23 48.1 °F /  8.9 °C 46.2 °F /  7.9 °C 30.17in /  1021.6hPa Calm     93% 0.00in /  0mm WeatherDisplay:10.37 W/m2 BKN
03:24 48.0 °F /  8.9 °C 46.1 °F /  7.8 °C 30.17in /  1021.6hPa Calm     93% 0.00in /  0mm WeatherDisplay:10.37 W/m2
03:28 48.0 °F /  8.9 °C 46.1 °F /  7.8 °C 30.17in /  1021.6hPa Calm     93% 0.00in /  0mm WeatherDisplay:10.37 W/m2 BKN
03:29 47.9 °F /  8.8 °C 46.0 °F /  7.8 °C 30.17in /  1021.6hPa Calm     93% 0.00in /  0mm WeatherDisplay:10.37 W/m2
03:34 47.8 °F /  8.8 °C 45.9 °F /  7.7 °C 30.17in /  1021.6hPa Calm     93% 0.00in /  0mm WeatherDisplay:10.37 W/m2
03:38 47.7 °F /  8.7 °C 45.8 °F /  7.7 °C 30.17in /  1021.6hPa Calm     93% 0.00in /  0mm WeatherDisplay:10.37 W/m2 BKN
03:39 47.7 °F /  8.7 °C 45.8 °F /  7.7 °C 30.17in /  1021.6hPa Calm     93% 0.00in /  0mm WeatherDisplay:10.37 W/m2
03:43 47.7 °F /  8.7 °C 45.8 °F /  7.7 °C 30.17in /  1021.6hPa Calm     93% 0.00in /  0mm WeatherDisplay:10.37 W/m2 BKN
03:44 47.7 °F /  8.7 °C 45.8 °F /  7.7 °C 30.16in /  1021.2hPa Calm     93% 0.00in /  0mm WeatherDisplay:10.37 W/m2
03:49 47.6 °F /  8.7 °C 45.7 °F /  7.6 °C 30.17in /  1021.6hPa Calm     93% 0.00in /  0mm WeatherDisplay:10.37 W/m2
03:58 47.6 °F /  8.7 °C 45.7 °F /  7.6 °C 30.17in /  1021.6hPa Calm     93% 0.00in /  0mm WeatherDisplay:10.37 W/m2 BKN
03:59 47.6 °F /  8.7 °C 45.7 °F /  7.6 °C 30.17in /  1021.6hPa Calm     93% 0.00in /  0mm WeatherDisplay:10.37 W/m2
04:04 47.5 °F /  8.6 °C 45.6 °F /  7.6 °C 30.17in /  1021.6hPa Calm     93% 0.00in /  0mm WeatherDisplay:10.37 W/m2 BKN
04:09 47.6 °F /  8.7 °C 45.7 °F /  7.6 °C 30.17in /  1021.6hPa Calm     93% 0.00in /  0mm WeatherDisplay:10.37 W/m2
04:14 47.6 °F /  8.7 °C 46.0 °F /  7.8 °C 30.17in /  1021.6hPa Calm     94% 0.00in /  0mm WeatherDisplay:10.37 W/m2
04:19 47.7 °F /  8.7 °C 46.1 °F /  7.8 °C 30.17in /  1021.6hPa Calm     94% 0.00in /  0mm WeatherDisplay:10.37 W/m2 BKN
04:24 47.7 °F /  8.7 °C 46.1 °F /  7.8 °C 30.17in /  1021.6hPa Calm     94% 0.00in /  0mm WeatherDisplay:10.37 W/m2 BKN
04:29 47.6 °F /  8.7 °C 45.7 °F /  7.6 °C 30.17in /  1021.6hPa Calm     93% 0.00in /  0mm WeatherDisplay:10.37 W/m2
04:34 47.6 °F /  8.7 °C 45.7 °F /  7.6 °C 30.17in /  1021.6hPa Calm     93% 0.00in /  0mm WeatherDisplay:10.37 W/m2 BKN
04:39 47.6 °F /  8.7 °C 45.7 °F /  7.6 °C 30.17in /  1021.6hPa Calm     93% 0.00in /  0mm WeatherDisplay:10.37 W/m2 BKN
04:44 47.6 °F /  8.7 °C 45.7 °F /  7.6 °C 30.18in /  1021.9hPa Calm     93% 0.00in /  0mm WeatherDisplay:10.37 W/m2
04:49 47.6 °F /  8.7 °C 45.7 °F /  7.6 °C 30.18in /  1021.9hPa Calm     93% 0.00in /  0mm WeatherDisplay:10.37 W/m2 BKN
04:54 47.7 °F /  8.7 °C 46.1 °F /  7.8 °C 30.18in /  1021.9hPa Calm     94% 0.00in /  0mm WeatherDisplay:10.37 W/m2
04:59 47.7 °F /  8.7 °C 46.1 °F /  7.8 °C 30.18in /  1021.9hPa Calm     94% 0.00in /  0mm WeatherDisplay:10.37 W/m2 BKN
05:04 47.7 °F /  8.7 °C 46.1 °F /  7.8 °C 30.17in /  1021.6hPa Calm     94% 0.00in /  0mm WeatherDisplay:10.37 W/m2
05:09 47.6 °F /  8.7 °C 46.0 °F /  7.8 °C 30.18in /  1021.9hPa Calm     94% 0.00in /  0mm WeatherDisplay:10.37 W/m2
05:14 47.6 °F /  8.7 °C 46.0 °F /  7.8 °C 30.18in /  1021.9hPa Calm     94% 0.00in /  0mm WeatherDisplay:10.37 W/m2
05:19 47.6 °F /  8.7 °C 46.0 °F /  7.8 °C 30.18in /  1021.9hPa Calm     94% 0.00in /  0mm WeatherDisplay:10.37 W/m2
05:20 47.6 °F /  8.7 °C 46.0 °F /  7.8 °C 30.18in /  1021.9hPa Calm     94% 0.00in /  0mm WeatherDisplay:10.37 W/m2 BKN
05:24 47.5 °F /  8.6 °C 45.9 °F /  7.7 °C 30.18in /  1021.9hPa Calm     94% 0.00in /  0mm WeatherDisplay:10.37 W/m2
05:25 47.5 °F /  8.6 °C 45.9 °F /  7.7 °C 30.18in /  1021.9hPa Calm     94% 0.00in /  0mm WeatherDisplay:10.37 W/m2 BKN
05:29 47.5 °F /  8.6 °C 45.9 °F /  7.7 °C 30.18in /  1021.9hPa Calm     94% 0.00in /  0mm WeatherDisplay:10.37 W/m2
05:34 47.5 °F /  8.6 °C 45.9 °F /  7.7 °C 30.19in /  1022.2hPa Calm     94% 0.00in /  0mm WeatherDisplay:10.37 W/m2
05:39 47.4 °F /  8.6 °C 45.8 °F /  7.7 °C 30.19in /  1022.2hPa Calm     94% 0.00in /  0mm WeatherDisplay:10.37 W/m2
05:40 47.4 °F /  8.6 °C 45.8 °F /  7.7 °C 30.19in /  1022.2hPa Calm     94% 0.00in /  0mm WeatherDisplay:10.37 W/m2 BKN
05:44 47.3 °F /  8.5 °C 45.4 °F /  7.4 °C 30.19in /  1022.2hPa Calm     93% 0.00in /  0mm WeatherDisplay:10.37 W/m2
05:45 47.3 °F /  8.5 °C 45.4 °F /  7.4 °C 30.19in /  1022.2hPa Calm     93% 0.00in /  0mm WeatherDisplay:10.37 W/m2 BKN
05:49 47.2 °F /  8.4 °C 45.3 °F /  7.4 °C 30.19in /  1022.2hPa Calm     93% 0.00in /  0mm WeatherDisplay:10.37 W/m2
05:50 47.2 °F /  8.4 °C 45.3 °F /  7.4 °C 30.19in /  1022.2hPa Calm     93% 0.00in /  0mm WeatherDisplay:10.37 W/m2 BKN
05:54 47.2 °F /  8.4 °C 45.3 °F /  7.4 °C 30.19in /  1022.2hPa Calm     93% 0.00in /  0mm WeatherDisplay:10.37 W/m2
05:59 47.0 °F /  8.3 °C 45.1 °F /  7.3 °C 30.19in /  1022.2hPa Calm     93% 0.00in /  0mm WeatherDisplay:10.37 W/m2
06:00 47.0 °F /  8.3 °C 45.1 °F /  7.3 °C 30.19in /  1022.2hPa Calm     93% 0.00in /  0mm WeatherDisplay:10.37 W/m2 BKN
06:04 46.9 °F /  8.3 °C 45.0 °F /  7.2 °C 30.19in /  1022.2hPa Calm     93% 0.00in /  0mm WeatherDisplay:10.37 W/m2
06:06 46.9 °F /  8.3 °C 45.0 °F /  7.2 °C 30.19in /  1022.2hPa Calm     93% 0.00in /  0mm WeatherDisplay:10.37 W/m2 CLR
06:09 46.9 °F /  8.3 °C 45.0 °F /  7.2 °C 30.19in /  1022.2hPa Calm     93% 0.00in /  0mm WeatherDisplay:10.37 W/m2
06:11 46.9 °F /  8.3 °C 45.0 °F /  7.2 °C 30.19in /  1022.2hPa Calm     93% 0.00in /  0mm WeatherDisplay:10.37 W/m2 CLR
06:14 46.9 °F /  8.3 °C 45.0 °F /  7.2 °C 30.19in /  1022.2hPa Calm     93% 0.00in /  0mm WeatherDisplay:10.37 W/m2
06:19 46.8 °F /  8.2 °C 44.9 °F /  7.2 °C 30.19in /  1022.2hPa Calm     93% 0.00in /  0mm WeatherDisplay:10.37 W/m2
06:21 46.8 °F /  8.2 °C 44.9 °F /  7.2 °C 30.19in /  1022.2hPa Calm     93% 0.00in /  0mm WeatherDisplay:10.37 W/m2 CLR
06:24 46.8 °F /  8.2 °C 44.9 °F /  7.2 °C 30.18in /  1021.9hPa Calm     93% 0.00in /  0mm WeatherDisplay:10.37 W/m2
06:26 46.8 °F /  8.2 °C 44.9 °F /  7.2 °C 30.19in /  1022.2hPa Calm     93% 0.00in /  0mm WeatherDisplay:10.37 W/m2 CLR
06:29 46.9 °F /  8.3 °C 45.3 °F /  7.4 °C 30.19in /  1022.2hPa Calm     94% 0.00in /  0mm WeatherDisplay:10.37 W/m2
06:31 46.9 °F /  8.3 °C 45.3 °F /  7.4 °C 30.19in /  1022.2hPa Calm     94% 0.00in /  0mm WeatherDisplay:10.37 W/m2 CLR
06:34 47.0 °F /  8.3 °C 45.4 °F /  7.4 °C 30.19in /  1022.2hPa Calm     94% 0.00in /  0mm WeatherDisplay:10.37 W/m2
06:36 47.0 °F /  8.3 °C 45.4 °F /  7.4 °C 30.19in /  1022.2hPa Calm     94% 0.00in /  0mm WeatherDisplay:10.37 W/m2 CLR
06:39 47.2 °F /  8.4 °C 45.6 °F /  7.6 °C 30.19in /  1022.2hPa Calm     94% 0.00in /  0mm WeatherDisplay:10.37 W/m2
06:41 47.2 °F /  8.4 °C 45.6 °F /  7.6 °C 30.19in /  1022.2hPa Calm     94% 0.00in /  0mm WeatherDisplay:10.37 W/m2 CLR
06:44 47.2 °F /  8.4 °C 45.6 °F /  7.6 °C 30.19in /  1022.2hPa Calm     94% 0.00in /  0mm WeatherDisplay:10.37 W/m2
06:51 47.9 °F /  8.8 °C 46.3 °F /  7.9 °C 30.20in /  1022.6hPa Calm     94% 0.00in /  0mm WeatherDisplay:10.37 W/m2 CLR
06:54 48.3 °F /  9.1 °C 46.7 °F /  8.2 °C 30.20in /  1022.6hPa Calm     94% 0.00in /  0mm WeatherDisplay:10.37 W/m2
06:56 48.6 °F /  9.2 °C 47.0 °F /  8.3 °C 30.20in /  1022.6hPa Calm     94% 0.00in /  0mm WeatherDisplay:10.37 W/m2 CLR
06:59 49.2 °F /  9.6 °C 47.5 °F /  8.6 °C 30.20in /  1022.6hPa Calm     94% 0.00in /  0mm WeatherDisplay:10.37 W/m2
07:07 49.6 °F /  9.8 °C 47.9 °F /  8.8 °C 30.21in /  1022.9hPa Calm     94% 0.00in /  0mm WeatherDisplay:10.37 W/m2 CLR
07:09 49.7 °F /  9.8 °C 48.0 °F /  8.9 °C 30.20in /  1022.6hPa Calm     94% 0.00in /  0mm WeatherDisplay:10.37 W/m2
07:14 49.9 °F /  9.9 °C 48.2 °F /  9 °C 30.21in /  1022.9hPa Calm     94% 0.00in /  0mm WeatherDisplay:10.37 W/m2
07:17 50.0 °F /  10 °C 48.3 °F /  9.1 °C 30.21in /  1022.9hPa Calm     94% 0.00in /  0mm WeatherDisplay:10.37 W/m2 BKN
07:19 50.2 °F /  10.1 °C 48.5 °F /  9.2 °C 30.21in /  1022.9hPa Calm     94% 0.00in /  0mm WeatherDisplay:10.37 W/m2
07:22 50.4 °F /  10.2 °C 48.7 °F /  9.3 °C 30.21in /  1022.9hPa Calm     94% 0.00in /  0mm WeatherDisplay:10.37 W/m2 BKN
07:24 50.3 °F /  10.2 °C 48.6 °F /  9.2 °C 30.21in /  1022.9hPa Calm     94% 0.00in /  0mm WeatherDisplay:10.37 W/m2
07:27 50.0 °F /  10 °C 48.3 °F /  9.1 °C 30.21in /  1022.9hPa Calm     94% 0.00in /  0mm WeatherDisplay:10.37 W/m2 BKN
07:29 49.5 °F /  9.7 °C 47.8 °F /  8.8 °C 30.21in /  1022.9hPa Calm     94% 0.00in /  0mm WeatherDisplay:10.37 W/m2
07:32 49.2 °F /  9.6 °C 47.5 °F /  8.6 °C 30.21in /  1022.9hPa Calm     94% 0.00in /  0mm WeatherDisplay:10.37 W/m2 BKN
07:34 49.1 °F /  9.5 °C 47.4 °F /  8.6 °C 30.21in /  1022.9hPa Calm     94% 0.00in /  0mm WeatherDisplay:10.37 W/m2
07:39 49.1 °F /  9.5 °C 47.4 °F /  8.6 °C 30.20in /  1022.6hPa Calm     94% 0.00in /  0mm WeatherDisplay:10.37 W/m2
07:42 49.1 °F /  9.5 °C 47.4 °F /  8.6 °C 30.21in /  1022.9hPa Calm     94% 0.00in /  0mm WeatherDisplay:10.37 W/m2 BKN
07:44 49.3 °F /  9.6 °C 47.6 °F /  8.7 °C 30.21in /  1022.9hPa Calm     94% 0.00in /  0mm WeatherDisplay:10.37 W/m2
07:47 49.4 °F /  9.7 °C 47.7 °F /  8.7 °C 30.20in /  1022.6hPa Calm     94% 0.00in /  0mm WeatherDisplay:10.37 W/m2 BKN
07:49 49.4 °F /  9.7 °C 47.7 °F /  8.7 °C 30.21in /  1022.9hPa Calm     94% 0.00in /  0mm WeatherDisplay:10.37 W/m2
07:52 49.3 °F /  9.6 °C 47.6 °F /  8.7 °C 30.21in /  1022.9hPa Calm     94% 0.00in /  0mm WeatherDisplay:10.37 W/m2 BKN
07:54 49.3 °F /  9.6 °C 47.6 °F /  8.7 °C 30.20in /  1022.6hPa Calm     94% 0.00in /  0mm WeatherDisplay:10.37 W/m2
07:57 49.3 °F /  9.6 °C 47.6 °F /  8.7 °C 30.20in /  1022.6hPa Calm     94% 0.00in /  0mm WeatherDisplay:10.37 W/m2 BKN
07:59 49.3 °F /  9.6 °C 47.6 °F /  8.7 °C 30.21in /  1022.9hPa Calm     94% 0.00in /  0mm WeatherDisplay:10.37 W/m2
08:02 49.4 °F /  9.7 °C 47.7 °F /  8.7 °C 30.21in /  1022.9hPa Calm     94% 0.00in /  0mm WeatherDisplay:10.37 W/m2 BKN
08:04 49.6 °F /  9.8 °C 47.9 °F /  8.8 °C 30.22in /  1023.2hPa Calm     94% 0.00in /  0mm WeatherDisplay:10.37 W/m2
08:07 50.1 °F /  10.1 °C 48.4 °F /  9.1 °C 30.22in /  1023.2hPa Calm     94% 0.00in /  0mm WeatherDisplay:10.37 W/m2 BKN
08:09 50.3 °F /  10.2 °C 48.6 °F /  9.2 °C 30.22in /  1023.2hPa Calm     94% 0.00in /  0mm WeatherDisplay:10.37 W/m2
08:12 50.2 °F /  10.1 °C 48.5 °F /  9.2 °C 30.22in /  1023.2hPa Calm     94% 0.00in /  0mm WeatherDisplay:10.37 W/m2 FEW
08:14 50.1 °F /  10.1 °C 48.4 °F /  9.1 °C 30.22in /  1023.2hPa Calm     94% 0.00in /  0mm WeatherDisplay:10.37 W/m2
08:18 50.1 °F /  10.1 °C 48.4 °F /  9.1 °C 30.22in /  1023.2hPa Calm     94% 0.00in /  0mm WeatherDisplay:10.37 W/m2 FEW
08:19 50.3 °F /  10.2 °C 48.6 °F /  9.2 °C 30.22in /  1023.2hPa Calm     94% 0.00in /  0mm WeatherDisplay:10.37 W/m2
08:23 50.6 °F /  10.3 °C 48.9 °F /  9.4 °C 30.22in /  1023.2hPa Calm     94% 0.00in /  0mm WeatherDisplay:10.37 W/m2 FEW
08:29 50.5 °F /  10.3 °C 48.8 °F /  9.3 °C 30.22in /  1023.2hPa Calm     94% 0.00in /  0mm WeatherDisplay:10.37 W/m2
08:33 50.5 °F /  10.3 °C 48.8 °F /  9.3 °C 30.22in /  1023.2hPa Calm     94% 0.00in /  0mm WeatherDisplay:10.37 W/m2 FEW
08:34 50.7 °F /  10.4 °C 49.0 °F /  9.4 °C 30.23in /  1023.6hPa Calm     94% 0.00in /  0mm WeatherDisplay:10.37 W/m2
08:38 50.9 °F /  10.5 °C 49.2 °F /  9.6 °C 30.23in /  1023.6hPa Calm     94% 0.00in /  0mm WeatherDisplay:10.37 W/m2 FEW
08:39 51.0 °F /  10.6 °C 49.3 °F /  9.6 °C 30.23in /  1023.6hPa Calm     94% 0.00in /  0mm WeatherDisplay:10.37 W/m2
08:44 51.4 °F /  10.8 °C 49.7 °F /  9.8 °C 30.23in /  1023.6hPa Calm     94% 0.00in /  0mm WeatherDisplay:10.37 W/m2
08:48 51.6 °F /  10.9 °C 49.9 °F /  9.9 °C 30.23in /  1023.6hPa Calm     94% 0.00in /  0mm WeatherDisplay:10.37 W/m2 FEW
08:49 51.7 °F /  10.9 °C 50.0 °F /  10 °C 30.23in /  1023.6hPa Calm     94% 0.00in /  0mm WeatherDisplay:10.37 W/m2
08:54 51.8 °F /  11 °C 50.1 °F /  10.1 °C 30.23in /  1023.6hPa Calm     94% 0.00in /  0mm WeatherDisplay:10.37 W/m2 FEW
08:59 52.1 °F /  11.2 °C 50.4 °F /  10.2 °C 30.23in /  1023.6hPa Calm     94% 0.00in /  0mm WeatherDisplay:10.37 W/m2 FEW
09:04 52.4 °F /  11.3 °C 50.7 °F /  10.4 °C 30.23in /  1023.6hPa Calm     94% 0.00in /  0mm WeatherDisplay:10.37 W/m2 BKN
09:09 52.6 °F /  11.4 °C 50.9 °F /  10.5 °C 30.23in /  1023.6hPa Calm     94% 0.00in /  0mm WeatherDisplay:10.37 W/m2 BKN
09:14 52.8 °F /  11.6 °C 51.1 °F /  10.6 °C 30.24in /  1023.9hPa Calm     94% 0.00in /  0mm WeatherDisplay:10.37 W/m2 BKN
09:19 52.9 °F /  11.6 °C 51.2 °F /  10.7 °C 30.23in /  1023.6hPa Calm     94% 0.00in /  0mm WeatherDisplay:10.37 W/m2 BKN
09:24 52.7 °F /  11.5 °C 51.0 °F /  10.6 °C 30.23in /  1023.6hPa ESE 1.2mph /  1.9km/h   94% 0.00in /  0mm WeatherDisplay:10.37 W/m2 BKN
09:29 52.8 °F /  11.6 °C 51.1 °F /  10.6 °C 30.23in /  1023.6hPa ESE 1.2mph /  1.9km/h   94% 0.00in /  0mm WeatherDisplay:10.37 W/m2 BKN
09:34 53.0 °F /  11.7 °C 51.3 °F /  10.7 °C 30.23in /  1023.6hPa Calm   1.0mph /  1.6km/h 94% 0.00in /  0mm WeatherDisplay:10.37 W/m2
09:39 53.1 °F /  11.7 °C 51.4 °F /  10.8 °C 30.23in /  1023.6hPa Calm   1.0mph /  1.6km/h 94% 0.00in /  0mm WeatherDisplay:10.37 W/m2
09:44 53.4 °F /  11.9 °C 51.7 °F /  10.9 °C 30.23in /  1023.6hPa Calm     94% 0.00in /  0mm WeatherDisplay:10.37 W/m2
09:49 53.6 °F /  12 °C 51.9 °F /  11.1 °C 30.23in /  1023.6hPa Calm     94% 0.00in /  0mm WeatherDisplay:10.37 W/m2
09:59 53.9 °F /  12.2 °C 51.9 °F /  11.1 °C 30.23in /  1023.6hPa Calm   1.0mph /  1.6km/h 93% 0.00in /  0mm WeatherDisplay:10.37 W/m2
10:00 53.9 °F /  12.2 °C 51.9 °F /  11.1 °C 30.23in /  1023.6hPa ESE 1.2mph /  1.9km/h   93% 0.00in /  0mm WeatherDisplay:10.37 W/m2 BKN
10:04 54.2 °F /  12.3 °C 52.2 °F /  11.2 °C 30.23in /  1023.6hPa Calm     93% 0.00in /  0mm WeatherDisplay:10.37 W/m2
10:05 54.1 °F /  12.3 °C 52.2 °F /  11.2 °C 30.23in /  1023.6hPa Calm     93% 0.00in /  0mm WeatherDisplay:10.37 W/m2 BKN
10:09 54.5 °F /  12.5 °C 52.2 °F /  11.2 °C 30.23in /  1023.6hPa Calm   1.0mph /  1.6km/h 92% 0.00in /  0mm WeatherDisplay:10.37 W/m2
10:10 54.5 °F /  12.5 °C 52.2 °F /  11.2 °C 30.23in /  1023.6hPa Calm   1.0mph /  1.6km/h 92% 0.00in /  0mm WeatherDisplay:10.37 W/m2 BKN
10:14 54.8 °F /  12.7 °C 52.2 °F /  11.2 °C 30.23in /  1023.6hPa SW 1.0mph /  1.6km/h 2.0mph /  3.2km/h 91% 0.00in /  0mm WeatherDisplay:10.37 W/m2
10:15 54.8 °F /  12.7 °C 52.2 °F /  11.2 °C 30.23in /  1023.6hPa ESE 1.2mph /  1.9km/h 1.2mph /  1.9km/h 91% 0.00in /  0mm WeatherDisplay:10.37 W/m2 BKN
10:19 55.3 °F /  12.9 °C 52.7 °F /  11.5 °C 30.23in /  1023.6hPa Calm   2.0mph /  3.2km/h 91% 0.00in /  0mm WeatherDisplay:10.37 W/m2
10:20 55.3 °F /  12.9 °C 52.7 °F /  11.5 °C 30.22in /  1023.2hPa West 2.3mph /  3.7km/h   91% 0.00in /  0mm WeatherDisplay:10.37 W/m2 BKN
10:24 55.9 °F /  13.3 °C 53.0 °F /  11.7 °C 30.23in /  1023.6hPa Calm   1.0mph /  1.6km/h 90% 0.00in /  0mm WeatherDisplay:10.37 W/m2
10:25 55.8 °F /  13.2 °C 52.9 °F /  11.6 °C 30.23in /  1023.6hPa West 2.3mph /  3.7km/h 2.3mph /  3.7km/h 90% 0.00in /  0mm WeatherDisplay:10.37 W/m2 BKN
10:29 56.0 °F /  13.3 °C 52.5 °F /  11.4 °C 30.23in /  1023.6hPa Calm   4.0mph /  6.4km/h 88% 0.00in /  0mm WeatherDisplay:10.37 W/m2
10:30 56.0 °F /  13.3 °C 52.5 °F /  11.4 °C 30.23in /  1023.6hPa West 4.6mph /  7.4km/h   88% 0.00in /  0mm WeatherDisplay:10.37 W/m2 BKN
10:34 56.3 °F /  13.5 °C 52.8 °F /  11.6 °C 30.23in /  1023.6hPa Calm   1.0mph /  1.6km/h 88% 0.00in /  0mm WeatherDisplay:10.37 W/m2
10:35 56.4 °F /  13.6 °C 52.9 °F /  11.6 °C 30.23in /  1023.6hPa West 4.6mph /  7.4km/h   88% 0.00in /  0mm WeatherDisplay:10.37 W/m2 BKN
10:39 57.1 °F /  13.9 °C 53.6 °F /  12 °C 30.22in /  1023.2hPa Calm   1.0mph /  1.6km/h 88% 0.00in /  0mm WeatherDisplay:10.37 W/m2
10:41 57.1 °F /  13.9 °C 53.3 °F /  11.8 °C 30.22in /  1023.2hPa West 1.2mph /  1.9km/h   87% 0.00in /  0mm WeatherDisplay:10.37 W/m2 BKN
10:44 57.8 °F /  14.3 °C 53.3 °F /  11.8 °C 30.22in /  1023.2hPa Calm   1.0mph /  1.6km/h 85% 0.00in /  0mm WeatherDisplay:10.37 W/m2
10:49 58.7 °F /  14.8 °C 54.5 °F /  12.5 °C 30.22in /  1023.2hPa Calm   1.0mph /  1.6km/h 86% 0.00in /  0mm WeatherDisplay:10.37 W/m2
10:51 58.8 °F /  14.9 °C 54.3 °F /  12.4 °C 30.22in /  1023.2hPa West 1.2mph /  1.9km/h 1.2mph /  1.9km/h 85% 0.00in /  0mm WeatherDisplay:10.37 W/m2 BKN
10:54 59.4 °F /  15.2 °C 54.2 °F /  12.3 °C 30.22in /  1023.2hPa Calm   1.0mph /  1.6km/h 83% 0.00in /  0mm WeatherDisplay:10.37 W/m2
10:56 59.5 °F /  15.3 °C 54.3 °F /  12.4 °C 30.22in /  1023.2hPa WNW 1.2mph /  1.9km/h 1.2mph /  1.9km/h 83% 0.00in /  0mm WeatherDisplay:10.37 W/m2 BKN
10:59 59.8 °F /  15.4 °C 54.3 °F /  12.4 °C 30.22in /  1023.2hPa Calm   1.0mph /  1.6km/h 82% 0.00in /  0mm WeatherDisplay:10.37 W/m2
11:04 60.2 °F /  15.7 °C 54.7 °F /  12.6 °C 30.21in /  1022.9hPa Calm   2.0mph /  3.2km/h 82% 0.00in /  0mm WeatherDisplay:10.37 W/m2
11:06 60.3 °F /  15.7 °C 54.4 °F /  12.4 °C 30.22in /  1023.2hPa West 2.3mph /  3.7km/h 2.3mph /  3.7km/h 81% 0.00in /  0mm WeatherDisplay:10.37 W/m2 BKN
11:09 60.5 °F /  15.8 °C 54.6 °F /  12.6 °C 30.22in /  1023.2hPa Calm   1.0mph /  1.6km/h 81% 0.00in /  0mm WeatherDisplay:10.37 W/m2
11:14 60.9 °F /  16.1 °C 55.0 °F /  12.8 °C 30.21in /  1022.9hPa Calm   1.0mph /  1.6km/h 81% 0.00in /  0mm WeatherDisplay:10.37 W/m2
11:19 61.1 °F /  16.2 °C 54.5 °F /  12.5 °C 30.21in /  1022.9hPa Calm   1.0mph /  1.6km/h 79% 0.00in /  0mm WeatherDisplay:10.37 W/m2
11:21 61.0 °F /  16.1 °C 54.4 °F /  12.4 °C 30.21in /  1022.9hPa West 1.2mph /  1.9km/h 1.2mph /  1.9km/h 79% 0.00in /  0mm WeatherDisplay:10.37 W/m2 BKN
11:24 61.1 °F /  16.2 °C 54.9 °F /  12.7 °C 30.21in /  1022.9hPa Calm   1.0mph /  1.6km/h 80% 0.00in /  0mm WeatherDisplay:10.37 W/m2
11:26 61.2 °F /  16.2 °C 55.0 °F /  12.8 °C 30.21in /  1022.9hPa West 1.2mph /  1.9km/h 1.2mph /  1.9km/h 80% 0.00in /  0mm WeatherDisplay:10.37 W/m2 BKN
11:29 61.6 °F /  16.4 °C 55.0 °F /  12.8 °C 30.21in /  1022.9hPa Calm   1.0mph /  1.6km/h 79% 0.00in /  0mm WeatherDisplay:10.37 W/m2
11:34 62.1 °F /  16.7 °C 55.5 °F /  13.1 °C 30.20in /  1022.6hPa Calm   1.0mph /  1.6km/h 79% 0.00in /  0mm WeatherDisplay:10.37 W/m2
11:39 62.4 °F /  16.9 °C 55.1 °F /  12.8 °C 30.20in /  1022.6hPa Calm   2.0mph /  3.2km/h 77% 0.00in /  0mm WeatherDisplay:10.37 W/m2
11:41 62.4 °F /  16.9 °C 55.1 °F /  12.8 °C 30.19in /  1022.2hPa WNW 2.3mph /  3.7km/h 2.3mph /  3.7km/h 77% 0.00in /  0mm WeatherDisplay:10.37 W/m2 BKN
11:44 62.2 °F /  16.8 °C 54.9 °F /  12.7 °C 30.19in /  1022.2hPa WNW 1.0mph /  1.6km/h 2.0mph /  3.2km/h 77% 0.00in /  0mm WeatherDisplay:10.37 W/m2
11:47 62.1 °F /  16.7 °C 54.4 °F /  12.4 °C 30.19in /  1022.2hPa WNW 2.3mph /  3.7km/h 2.3mph /  3.7km/h 76% 0.00in /  0mm WeatherDisplay:10.37 W/m2 BKN
11:49 62.1 °F /  16.7 °C 54.8 °F /  12.7 °C 30.18in /  1021.9hPa Calm   2.0mph /  3.2km/h 77% 0.00in /  0mm WeatherDisplay:10.37 W/m2
11:52 62.2 °F /  16.8 °C 55.3 °F /  12.9 °C 30.18in /  1021.9hPa West 2.3mph /  3.7km/h 2.3mph /  3.7km/h 78% 0.00in /  0mm WeatherDisplay:10.37 W/m2 BKN
11:54 62.5 °F /  16.9 °C 55.2 °F /  12.9 °C 30.18in /  1021.9hPa West 1.0mph /  1.6km/h 2.0mph /  3.2km/h 77% 0.00in /  0mm WeatherDisplay:10.37 W/m2
11:57 62.6 °F /  17 °C 55.3 °F /  12.9 °C 30.18in /  1021.9hPa West 2.3mph /  3.7km/h 2.3mph /  3.7km/h 77% 0.00in /  0mm WeatherDisplay:10.37 W/m2 BKN
11:59 62.9 °F /  17.2 °C 55.6 °F /  13.1 °C 30.17in /  1021.6hPa Calm   2.0mph /  3.2km/h 77% 0.00in /  0mm WeatherDisplay:10.37 W/m2
12:02 63.1 °F /  17.3 °C 55.8 °F /  13.2 °C 30.17in /  1021.6hPa WNW 2.3mph /  3.7km/h   77% 0.00in /  0mm WeatherDisplay:10.37 W/m2 BKN
12:04 63.5 °F /  17.5 °C 55.8 °F /  13.2 °C 30.17in /  1021.6hPa Calm   1.0mph /  1.6km/h 76% 0.00in /  0mm WeatherDisplay:10.37 W/m2
12:07 63.8 °F /  17.7 °C 56.1 °F /  13.4 °C 30.17in /  1021.6hPa WNW 1.2mph /  1.9km/h   76% 0.00in /  0mm WeatherDisplay:10.37 W/m2 BKN
12:09 64.0 °F /  17.8 °C 55.5 °F /  13.1 °C 30.16in /  1021.2hPa West 1.0mph /  1.6km/h 2.0mph /  3.2km/h 74% 0.00in /  0mm WeatherDisplay:10.37 W/m2
12:12 64.0 °F /  17.8 °C 55.9 °F /  13.3 °C 30.16in /  1021.2hPa NW 2.3mph /  3.7km/h   75% 0.00in /  0mm WeatherDisplay:10.37 W/m2 BKN
12:17 64.1 °F /  17.8 °C 56.0 °F /  13.3 °C 30.17in /  1021.6hPa NW 2.3mph /  3.7km/h   75% 0.00in /  0mm WeatherDisplay:10.37 W/m2 BKN
12:19 64.2 °F /  17.9 °C 55.7 °F /  13.2 °C 30.17in /  1021.6hPa Calm   1.0mph /  1.6km/h 74% 0.00in /  0mm WeatherDisplay:10.37 W/m2
12:22 64.2 °F /  17.9 °C 55.7 °F /  13.2 °C 30.17in /  1021.6hPa NNW 1.2mph /  1.9km/h   74% 0.00in /  0mm WeatherDisplay:10.37 W/m2 BKN
12:24 64.2 °F /  17.9 °C 55.7 °F /  13.2 °C 30.18in /  1021.9hPa Calm   1.0mph /  1.6km/h 74% 0.00in /  0mm WeatherDisplay:10.37 W/m2
12:27 64.1 °F /  17.8 °C 55.3 °F /  12.9 °C 30.17in /  1021.6hPa ESE 2.3mph /  3.7km/h 2.3mph /  3.7km/h 73% 0.00in /  0mm WeatherDisplay:10.37 W/m2 BKN
12:29 64.0 °F /  17.8 °C 55.5 °F /  13.1 °C 30.18in /  1021.9hPa Calm   2.0mph /  3.2km/h 74% 0.00in /  0mm WeatherDisplay:10.37 W/m2
12:32 64.1 °F /  17.8 °C 55.3 °F /  12.9 °C 30.17in /  1021.6hPa SSW 2.3mph /  3.7km/h 2.3mph /  3.7km/h 73% 0.00in /  0mm WeatherDisplay:10.37 W/m2 BKN
12:37 64.4 °F /  18 °C 55.9 °F /  13.3 °C 30.17in /  1021.6hPa SW 2.3mph /  3.7km/h 2.3mph /  3.7km/h 74% 0.00in /  0mm WeatherDisplay:10.37 W/m2 BKN
12:39 64.5 °F /  18.1 °C 55.7 °F /  13.2 °C 30.17in /  1021.6hPa Calm   2.0mph /  3.2km/h 73% 0.00in /  0mm WeatherDisplay:10.37 W/m2
12:42 64.6 °F /  18.1 °C 55.4 °F /  13 °C 30.17in /  1021.6hPa SW 2.3mph /  3.7km/h 2.3mph /  3.7km/h 72% 0.00in /  0mm WeatherDisplay:10.37 W/m2 BKN
12:44 64.8 °F /  18.2 °C 55.9 °F /  13.3 °C 30.17in /  1021.6hPa Calm   2.0mph /  3.2km/h 73% 0.00in /  0mm WeatherDisplay:10.37 W/m2
12:47 65.0 °F /  18.3 °C 56.1 °F /  13.4 °C 30.17in /  1021.6hPa NW 2.3mph /  3.7km/h   73% 0.00in /  0mm WeatherDisplay:10.37 W/m2 BKN
12:52 65.4 °F /  18.6 °C 55.7 °F /  13.2 °C 30.17in /  1021.6hPa NW 2.3mph /  3.7km/h   71% 0.00in /  0mm WeatherDisplay:10.37 W/m2 BKN
12:54 65.0 °F /  18.3 °C 55.4 °F /  13 °C 30.17in /  1021.6hPa Calm   2.0mph /  3.2km/h 71% 0.00in /  0mm WeatherDisplay:10.37 W/m2
12:59 64.4 °F /  18 °C 54.8 °F /  12.7 °C 30.17in /  1021.6hPa Calm   3.0mph /  4.8km/h 71% 0.00in /  0mm WeatherDisplay:10.37 W/m2
13:03 64.2 °F /  17.9 °C 55.0 °F /  12.8 °C 30.17in /  1021.6hPa East 3.5mph /  5.6km/h 3.5mph /  5.6km/h 72% 0.00in /  0mm WeatherDisplay:10.37 W/m2 BKN
13:04 64.2 °F /  17.9 °C 55.0 °F /  12.8 °C 30.17in /  1021.6hPa Calm   2.0mph /  3.2km/h 72% 0.00in /  0mm WeatherDisplay:10.37 W/m2
13:08 64.3 °F /  17.9 °C 55.5 °F /  13.1 °C 30.17in /  1021.6hPa East 2.3mph /  3.7km/h 2.3mph /  3.7km/h 73% 0.00in /  0mm WeatherDisplay:10.37 W/m2 BKN
13:09 64.3 °F /  17.9 °C 55.1 °F /  12.8 °C 30.17in /  1021.6hPa Calm   1.0mph /  1.6km/h 72% 0.00in /  0mm WeatherDisplay:10.37 W/m2
13:14 64.4 °F /  18 °C 55.2 °F /  12.9 °C 30.16in /  1021.2hPa Calm     72% 0.00in /  0mm WeatherDisplay:10.37 W/m2
13:19 64.6 °F /  18.1 °C 55.0 °F /  12.8 °C 30.16in /  1021.2hPa East 1.0mph /  1.6km/h 3.0mph /  4.8km/h 71% 0.00in /  0mm WeatherDisplay:10.37 W/m2
13:24 64.7 °F /  18.2 °C 55.1 °F /  12.8 °C 30.16in /  1021.2hPa Calm   1.0mph /  1.6km/h 71% 0.00in /  0mm WeatherDisplay:10.37 W/m2
13:28 64.6 °F /  18.1 °C 55.0 °F /  12.8 °C 30.16in /  1021.2hPa SE 3.5mph /  5.6km/h   71% 0.00in /  0mm WeatherDisplay:10.37 W/m2 BKN
13:29 64.6 °F /  18.1 °C 54.6 °F /  12.6 °C 30.16in /  1021.2hPa Calm   1.0mph /  1.6km/h 70% 0.00in /  0mm WeatherDisplay:10.37 W/m2
13:33 64.6 °F /  18.1 °C 55.0 °F /  12.8 °C 30.16in /  1021.2hPa South 1.2mph /  1.9km/h   71% 0.00in /  0mm WeatherDisplay:10.37 W/m2 BKN
13:34 64.7 °F /  18.2 °C 54.7 °F /  12.6 °C 30.16in /  1021.2hPa Calm     70% 0.00in /  0mm WeatherDisplay:10.37 W/m2
13:38 64.9 °F /  18.3 °C 55.7 °F /  13.2 °C 30.15in /  1020.9hPa SSW 1.2mph /  1.9km/h   72% 0.00in /  0mm WeatherDisplay:10.37 W/m2 BKN
13:39 65.1 °F /  18.4 °C 55.8 °F /  13.2 °C 30.15in /  1020.9hPa Calm     72% 0.00in /  0mm WeatherDisplay:10.37 W/m2
13:43 65.4 °F /  18.6 °C 55.7 °F /  13.2 °C 30.15in /  1020.9hPa Calm     71% 0.00in /  0mm WeatherDisplay:10.37 W/m2 BKN
13:44 65.5 °F /  18.6 °C 55.5 °F /  13.1 °C 30.15in /  1020.9hPa Calm     70% 0.00in /  0mm WeatherDisplay:10.37 W/m2
13:48 65.6 °F /  18.7 °C 55.2 °F /  12.9 °C 30.15in /  1020.9hPa WSW 4.6mph /  7.4km/h 4.6mph /  7.4km/h 69% 0.00in /  0mm WeatherDisplay:10.37 W/m2 BKN
13:49 65.6 °F /  18.7 °C 55.5 °F /  13.1 °C 30.15in /  1020.9hPa Calm   4.0mph /  6.4km/h 70% 0.00in /  0mm WeatherDisplay:10.37 W/m2
13:54 65.5 °F /  18.6 °C 55.8 °F /  13.2 °C 30.15in /  1020.9hPa Calm   1.0mph /  1.6km/h 71% 0.00in /  0mm WeatherDisplay:10.37 W/m2
13:59 65.3 °F /  18.5 °C 55.3 °F /  12.9 °C 30.15in /  1020.9hPa Calm   3.0mph /  4.8km/h 70% 0.00in /  0mm WeatherDisplay:10.37 W/m2
14:04 65.4 °F /  18.6 °C 55.4 °F /  13 °C 30.15in /  1020.9hPa SE 3.5mph /  5.6km/h 3.5mph /  5.6km/h 70% 0.00in /  0mm WeatherDisplay:10.37 W/m2 BKN
14:09 64.9 °F /  18.3 °C 54.9 °F /  12.7 °C 30.15in /  1020.9hPa ESE 4.6mph /  7.4km/h 4.6mph /  7.4km/h 70% 0.00in /  0mm WeatherDisplay:10.37 W/m2 BKN
14:14 64.6 °F /  18.1 °C 55.0 °F /  12.8 °C 30.15in /  1020.9hPa East 4.6mph /  7.4km/h   71% 0.00in /  0mm WeatherDisplay:10.37 W/m2 BKN
14:19 64.7 °F /  18.2 °C 55.1 °F /  12.8 °C 30.15in /  1020.9hPa ESE 2.3mph /  3.7km/h   71% 0.00in /  0mm WeatherDisplay:10.37 W/m2 BKN
14:24 65.0 °F /  18.3 °C 55.8 °F /  13.2 °C 30.15in /  1020.9hPa SSE 2.3mph /  3.7km/h 2.3mph /  3.7km/h 72% 0.00in /  0mm WeatherDisplay:10.37 W/m2 BKN
14:29 65.4 °F /  18.6 °C 55.7 °F /  13.2 °C 30.15in /  1020.9hPa SW 2.3mph /  3.7km/h   71% 0.00in /  0mm WeatherDisplay:10.37 W/m2 BKN
14:34 65.5 °F /  18.6 °C 55.1 °F /  12.8 °C 30.14in /  1020.5hPa WSW 2.3mph /  3.7km/h   69% 0.00in /  0mm WeatherDisplay:10.37 W/m2 BKN
14:39 65.4 °F /  18.6 °C 54.6 °F /  12.6 °C 30.15in /  1020.9hPa Calm   1.0mph /  1.6km/h 68% 0.00in /  0mm WeatherDisplay:10.37 W/m2
14:44 65.3 °F /  18.5 °C 54.9 °F /  12.7 °C 30.14in /  1020.5hPa ESE 1.2mph /  1.9km/h   69% 0.00in /  0mm WeatherDisplay:10.37 W/m2 BKN
14:49 65.3 °F /  18.5 °C 55.3 °F /  12.9 °C 30.14in /  1020.5hPa Calm   2.0mph /  3.2km/h 70% 0.00in /  0mm WeatherDisplay:10.37 W/m2
14:54 65.3 °F /  18.5 °C 54.9 °F /  12.7 °C 30.15in /  1020.9hPa Calm   3.0mph /  4.8km/h 69% 0.00in /  0mm WeatherDisplay:10.37 W/m2
14:59 65.3 °F /  18.5 °C 54.9 °F /  12.7 °C 30.15in /  1020.9hPa Calm   1.0mph /  1.6km/h 69% 0.00in /  0mm WeatherDisplay:10.37 W/m2
15:00 65.3 °F /  18.5 °C 54.9 °F /  12.7 °C 30.15in /  1020.9hPa South 3.5mph /  5.6km/h 3.5mph /  5.6km/h 69% 0.00in /  0mm WeatherDisplay:10.37 W/m2 BKN
15:04 65.0 °F /  18.3 °C 54.2 °F /  12.3 °C 30.15in /  1020.9hPa Calm   2.0mph /  3.2km/h 68% 0.00in /  0mm WeatherDisplay:10.37 W/m2
15:05 65.0 °F /  18.3 °C 54.6 °F /  12.6 °C 30.15in /  1020.9hPa Calm   2.0mph /  3.2km/h 69% 0.00in /  0mm WeatherDisplay:10.37 W/m2 BKN
15:09 64.6 °F /  18.1 °C 54.2 °F /  12.3 °C 30.15in /  1020.9hPa Calm   1.0mph /  1.6km/h 69% 0.00in /  0mm WeatherDisplay:10.37 W/m2
15:10 64.7 °F /  18.2 °C 54.3 °F /  12.4 °C 30.15in /  1020.9hPa Calm   1.0mph /  1.6km/h 69% 0.00in /  0mm WeatherDisplay:10.37 W/m2 BKN
15:14 64.5 °F /  18.1 °C 54.5 °F /  12.5 °C 30.14in /  1020.5hPa Calm     70% 0.00in /  0mm WeatherDisplay:10.37 W/m2
15:15 64.5 °F /  18.1 °C 54.5 °F /  12.5 °C 30.14in /  1020.5hPa East 2.3mph /  3.7km/h   70% 0.00in /  0mm WeatherDisplay:10.37 W/m2 BKN
15:19 64.7 °F /  18.2 °C 55.1 °F /  12.8 °C 30.14in /  1020.5hPa Calm     71% 0.00in /  0mm WeatherDisplay:10.37 W/m2
15:20 64.6 °F /  18.1 °C 55.0 °F /  12.8 °C 30.14in /  1020.5hPa Calm     71% 0.00in /  0mm WeatherDisplay:10.37 W/m2 BKN
15:24 64.7 °F /  18.2 °C 55.1 °F /  12.8 °C 30.13in /  1020.2hPa Calm     71% 0.00in /  0mm WeatherDisplay:10.37 W/m2
15:25 64.7 °F /  18.2 °C 55.1 °F /  12.8 °C 30.13in /  1020.2hPa Calm     71% 0.00in /  0mm WeatherDisplay:10.37 W/m2 BKN
15:29 64.9 °F /  18.3 °C 55.3 °F /  12.9 °C 30.13in /  1020.2hPa Calm     71% 0.00in /  0mm WeatherDisplay:10.37 W/m2
15:34 64.7 °F /  18.2 °C 54.7 °F /  12.6 °C 30.13in /  1020.2hPa Calm     70% 0.00in /  0mm WeatherDisplay:10.37 W/m2
15:39 64.6 °F /  18.1 °C 55.0 °F /  12.8 °C 30.13in /  1020.2hPa Calm     71% 0.00in /  0mm WeatherDisplay:10.37 W/m2
15:40 64.6 °F /  18.1 °C 55.0 °F /  12.8 °C 30.13in /  1020.2hPa Calm     71% 0.00in /  0mm WeatherDisplay:10.37 W/m2 BKN
15:44 64.6 °F /  18.1 °C 54.2 °F /  12.3 °C 30.13in /  1020.2hPa Calm     69% 0.00in /  0mm WeatherDisplay:10.37 W/m2
15:45 64.6 °F /  18.1 °C 54.2 °F /  12.3 °C 30.13in /  1020.2hPa Calm     69% 0.00in /  0mm WeatherDisplay:10.37 W/m2 BKN
15:49 64.5 °F /  18.1 °C 54.1 °F /  12.3 °C 30.13in /  1020.2hPa Calm   1.0mph /  1.6km/h 69% 0.00in /  0mm WeatherDisplay:10.37 W/m2
15:50 64.5 °F /  18.1 °C 54.1 °F /  12.3 °C 30.13in /  1020.2hPa East 1.2mph /  1.9km/h   69% 0.00in /  0mm WeatherDisplay:10.37 W/m2 BKN
15:54 64.4 °F /  18 °C 54.4 °F /  12.4 °C 30.13in /  1020.2hPa Calm     70% 0.00in /  0mm WeatherDisplay:10.37 W/m2
15:55 64.4 °F /  18 °C 54.4 °F /  12.4 °C 30.13in /  1020.2hPa East 1.2mph /  1.9km/h   70% 0.00in /  0mm WeatherDisplay:10.37 W/m2 BKN
15:59 64.2 °F /  17.9 °C 54.2 °F /  12.3 °C 30.13in /  1020.2hPa Calm     70% 0.00in /  0mm WeatherDisplay:10.37 W/m2
16:00 64.2 °F /  17.9 °C 54.2 °F /  12.3 °C 30.13in /  1020.2hPa Calm     70% 0.00in /  0mm WeatherDisplay:10.37 W/m2 BKN
16:05 63.9 °F /  17.7 °C 54.3 °F /  12.4 °C 30.14in /  1020.5hPa Calm     71% 0.00in /  0mm WeatherDisplay:10.37 W/m2 SCT
16:09 63.7 °F /  17.6 °C 54.5 °F /  12.5 °C 30.13in /  1020.2hPa Calm     72% 0.00in /  0mm WeatherDisplay:10.37 W/m2
16:11 63.7 °F /  17.6 °C 54.5 °F /  12.5 °C 30.13in /  1020.2hPa Calm     72% 0.00in /  0mm WeatherDisplay:10.37 W/m2 SCT
16:14 63.5 °F /  17.5 °C 53.9 °F /  12.2 °C 30.14in /  1020.5hPa Calm     71% 0.00in /  0mm WeatherDisplay:10.37 W/m2
16:19 63.3 °F /  17.4 °C 54.1 °F /  12.3 °C 30.14in /  1020.5hPa Calm     72% 0.00in /  0mm WeatherDisplay:10.37 W/m2
16:21 63.2 °F /  17.3 °C 54.0 °F /  12.2 °C 30.14in /  1020.5hPa Calm     72% 0.00in /  0mm WeatherDisplay:10.37 W/m2 SCT
16:24 63.0 °F /  17.2 °C 53.4 °F /  11.9 °C 30.14in /  1020.5hPa Calm     71% 0.00in /  0mm WeatherDisplay:10.37 W/m2
16:26 63.0 °F /  17.2 °C 53.8 °F /  12.1 °C 30.14in /  1020.5hPa Calm     72% 0.00in /  0mm WeatherDisplay:10.37 W/m2 SCT
16:29 63.0 °F /  17.2 °C 54.2 °F /  12.3 °C 30.14in /  1020.5hPa Calm     73% 0.00in /  0mm WeatherDisplay:10.37 W/m2
16:31 63.0 °F /  17.2 °C 54.2 °F /  12.3 °C 30.14in /  1020.5hPa Calm     73% 0.00in /  0mm WeatherDisplay:10.37 W/m2 SCT
16:34 62.9 °F /  17.2 °C 53.7 °F /  12.1 °C 30.14in /  1020.5hPa Calm     72% 0.00in /  0mm WeatherDisplay:10.37 W/m2
16:36 62.9 °F /  17.2 °C 53.7 °F /  12.1 °C 30.14in /  1020.5hPa Calm     72% 0.00in /  0mm WeatherDisplay:10.37 W/m2 SCT
16:39 62.9 °F /  17.2 °C 53.7 °F /  12.1 °C 30.14in /  1020.5hPa Calm     72% 0.00in /  0mm WeatherDisplay:10.37 W/m2
16:40 62.9 °F /  17.2 °C 53.7 °F /  12.1 °C 30.14in /  1020.5hPa Calm     72% 0.00in /  0mm WeatherDisplay:10.37 W/m2 SCT
16:44 62.7 °F /  17.1 °C 53.9 °F /  12.2 °C 30.14in /  1020.5hPa Calm     73% 0.00in /  0mm WeatherDisplay:10.37 W/m2
16:45 62.7 °F /  17.1 °C 53.9 °F /  12.2 °C 30.14in /  1020.5hPa Calm     73% 0.00in /  0mm WeatherDisplay:10.37 W/m2 SCT
16:49 62.4 °F /  16.9 °C 54.0 °F /  12.2 °C 30.14in /  1020.5hPa Calm     74% 0.00in /  0mm WeatherDisplay:10.37 W/m2
16:50 62.4 °F /  16.9 °C 54.0 °F /  12.2 °C 30.14in /  1020.5hPa Calm     74% 0.00in /  0mm WeatherDisplay:10.37 W/m2 SCT
16:59 61.9 °F /  16.6 °C 53.9 °F /  12.2 °C 30.15in /  1020.9hPa Calm     75% 0.00in /  0mm WeatherDisplay:10.37 W/m2
17:00 61.9 °F /  16.6 °C 54.2 °F /  12.3 °C 30.15in /  1020.9hPa Calm     76% 0.00in /  0mm WeatherDisplay:10.37 W/m2 SCT
17:04 61.7 °F /  16.5 °C 53.7 °F /  12.1 °C 30.15in /  1020.9hPa Calm     75% 0.00in /  0mm WeatherDisplay:10.37 W/m2
17:05 61.7 °F /  16.5 °C 54.1 °F /  12.3 °C 30.15in /  1020.9hPa Calm     76% 0.00in /  0mm WeatherDisplay:10.37 W/m2 BKN
17:09 61.5 °F /  16.4 °C 53.9 °F /  12.2 °C 30.15in /  1020.9hPa Calm     76% 0.00in /  0mm WeatherDisplay:10.37 W/m2
17:10 61.5 °F /  16.4 °C 53.9 °F /  12.2 °C 30.15in /  1020.9hPa Calm     76% 0.00in /  0mm WeatherDisplay:10.37 W/m2 BKN
17:16 61.4 °F /  16.3 °C 54.1 °F /  12.3 °C 30.15in /  1020.9hPa Calm     77% 0.00in /  0mm WeatherDisplay:10.37 W/m2 BKN
17:19 61.3 °F /  16.3 °C 54.0 °F /  12.2 °C 30.15in /  1020.9hPa Calm     77% 0.00in /  0mm WeatherDisplay:10.37 W/m2
17:24 61.1 °F /  16.2 °C 54.2 °F /  12.3 °C 30.15in /  1020.9hPa Calm     78% 0.00in /  0mm WeatherDisplay:10.37 W/m2
17:26 61.0 °F /  16.1 °C 54.1 °F /  12.3 °C 30.15in /  1020.9hPa Calm     78% 0.00in /  0mm WeatherDisplay:10.37 W/m2 BKN
17:31 60.8 °F /  16 °C 53.9 °F /  12.2 °C 30.15in /  1020.9hPa Calm     78% 0.00in /  0mm WeatherDisplay:10.37 W/m2 BKN
17:34 60.5 °F /  15.8 °C 53.6 °F /  12 °C 30.15in /  1020.9hPa Calm     78% 0.00in /  0mm WeatherDisplay:10.37 W/m2
17:39 60.3 °F /  15.7 °C 53.8 °F /  12.1 °C 30.15in /  1020.9hPa Calm     79% 0.00in /  0mm WeatherDisplay:10.37 W/m2
17:41 60.2 °F /  15.7 °C 53.7 °F /  12.1 °C 30.15in /  1020.9hPa Calm     79% 0.00in /  0mm WeatherDisplay:10.37 W/m2 BKN
17:44 60.0 °F /  15.6 °C 53.5 °F /  11.9 °C 30.15in /  1020.9hPa Calm     79% 0.00in /  0mm WeatherDisplay:10.37 W/m2
17:46 59.9 °F /  15.5 °C 53.4 °F /  11.9 °C 30.15in /  1020.9hPa Calm     79% 0.00in /  0mm WeatherDisplay:10.37 W/m2 BKN
17:49 59.7 °F /  15.4 °C 53.2 °F /  11.8 °C 30.15in /  1020.9hPa Calm     79% 0.00in /  0mm WeatherDisplay:10.37 W/m2
17:54 59.4 °F /  15.2 °C 52.9 °F /  11.6 °C 30.15in /  1020.9hPa Calm     79% 0.00in /  0mm WeatherDisplay:10.37 W/m2
17:56 59.3 °F /  15.2 °C 52.8 °F /  11.6 °C 30.15in /  1020.9hPa Calm     79% 0.00in /  0mm WeatherDisplay:10.37 W/m2 BKN
17:59 59.1 °F /  15.1 °C 52.9 °F /  11.6 °C 30.15in /  1020.9hPa Calm     80% 0.00in /  0mm WeatherDisplay:10.37 W/m2
18:01 59.0 °F /  15 °C 52.8 °F /  11.6 °C 30.15in /  1020.9hPa Calm     80% 0.00in /  0mm WeatherDisplay:10.37 W/m2 SCT
18:04 58.6 °F /  14.8 °C 52.4 °F /  11.3 °C 30.15in /  1020.9hPa Calm     80% 0.00in /  0mm WeatherDisplay:10.37 W/m2
18:06 58.6 °F /  14.8 °C 52.4 °F /  11.3 °C 30.15in /  1020.9hPa Calm     80% 0.00in /  0mm WeatherDisplay:10.37 W/m2 SCT
18:09 58.4 °F /  14.7 °C 52.3 °F /  11.3 °C 30.15in /  1020.9hPa Calm     80% 0.00in /  0mm WeatherDisplay:10.37 W/m2
18:11 58.4 °F /  14.7 °C 52.3 °F /  11.3 °C 30.15in /  1020.9hPa Calm     80% 0.00in /  0mm WeatherDisplay:10.37 W/m2 SCT
18:14 58.3 °F /  14.6 °C 52.2 °F /  11.2 °C 30.15in /  1020.9hPa Calm     80% 0.00in /  0mm WeatherDisplay:10.37 W/m2
18:16 58.2 °F /  14.6 °C 52.1 °F /  11.2 °C 30.15in /  1020.9hPa Calm     80% 0.00in /  0mm WeatherDisplay:10.37 W/m2 SCT
18:19 58.0 °F /  14.4 °C 52.2 °F /  11.2 °C 30.15in /  1020.9hPa Calm     81% 0.00in /  0mm WeatherDisplay:10.37 W/m2
18:21 57.9 °F /  14.4 °C 52.1 °F /  11.2 °C 30.15in /  1020.9hPa Calm     81% 0.00in /  0mm WeatherDisplay:10.37 W/m2 SCT
18:24 57.6 °F /  14.2 °C 52.1 °F /  11.2 °C 30.15in /  1020.9hPa Calm     82% 0.00in /  0mm WeatherDisplay:10.37 W/m2
18:29 57.2 °F /  14 °C 51.8 °F /  11 °C 30.15in /  1020.9hPa Calm     82% 0.00in /  0mm WeatherDisplay:10.37 W/m2
18:32 57.1 °F /  13.9 °C 51.7 °F /  10.9 °C 30.15in /  1020.9hPa Calm     82% 0.00in /  0mm WeatherDisplay:10.37 W/m2 SCT
18:34 56.9 °F /  13.8 °C 51.8 °F /  11 °C 30.15in /  1020.9hPa Calm     83% 0.00in /  0mm WeatherDisplay:10.37 W/m2
18:37 56.8 °F /  13.8 °C 51.7 °F /  10.9 °C 30.16in /  1021.2hPa Calm     83% 0.00in /  0mm WeatherDisplay:10.37 W/m2 SCT
18:39 56.6 °F /  13.7 °C 51.5 °F /  10.8 °C 30.16in /  1021.2hPa Calm     83% 0.00in /  0mm WeatherDisplay:10.37 W/m2
18:42 56.5 °F /  13.6 °C 51.7 °F /  10.9 °C 30.16in /  1021.2hPa Calm     84% 0.00in /  0mm WeatherDisplay:10.37 W/m2 SCT
18:44 56.3 °F /  13.5 °C 51.5 °F /  10.8 °C 30.16in /  1021.2hPa Calm     84% 0.00in /  0mm WeatherDisplay:10.37 W/m2
18:54 55.8 °F /  13.2 °C 51.4 °F /  10.8 °C 30.16in /  1021.2hPa Calm     85% 0.00in /  0mm WeatherDisplay:10.37 W/m2
19:02 55.4 °F /  13 °C 51.3 °F /  10.7 °C 30.16in /  1021.2hPa Calm     86% 0.00in /  0mm WeatherDisplay:10.37 W/m2 SCT
19:04 55.3 °F /  12.9 °C 51.2 °F /  10.7 °C 30.17in /  1021.6hPa Calm     86% 0.00in /  0mm WeatherDisplay:10.37 W/m2
19:07 55.1 °F /  12.8 °C 51.0 °F /  10.6 °C 30.17in /  1021.6hPa Calm     86% 0.00in /  0mm WeatherDisplay:10.37 W/m2 SCT
19:09 55.0 °F /  12.8 °C 50.9 °F /  10.5 °C 30.17in /  1021.6hPa Calm     86% 0.00in /  0mm WeatherDisplay:10.37 W/m2
19:12 54.9 °F /  12.7 °C 50.8 °F /  10.4 °C 30.17in /  1021.6hPa Calm     86% 0.00in /  0mm WeatherDisplay:10.37 W/m2 SCT
19:14 54.9 °F /  12.7 °C 51.1 °F /  10.6 °C 30.17in /  1021.6hPa Calm     87% 0.00in /  0mm WeatherDisplay:10.37 W/m2
19:19 54.8 °F /  12.7 °C 51.0 °F /  10.6 °C 30.17in /  1021.6hPa Calm     87% 0.00in /  0mm WeatherDisplay:10.37 W/m2
19:22 54.7 °F /  12.6 °C 50.9 °F /  10.5 °C 30.17in /  1021.6hPa Calm     87% 0.00in /  0mm WeatherDisplay:10.37 W/m2 SCT
19:24 54.7 °F /  12.6 °C 50.9 °F /  10.5 °C 30.17in /  1021.6hPa Calm     87% 0.00in /  0mm WeatherDisplay:10.37 W/m2
19:27 54.7 °F /  12.6 °C 50.9 °F /  10.5 °C 30.17in /  1021.6hPa Calm     87% 0.00in /  0mm WeatherDisplay:10.37 W/m2 SCT
19:29 54.7 °F /  12.6 °C 50.9 °F /  10.5 °C 30.17in /  1021.6hPa Calm     87% 0.00in /  0mm WeatherDisplay:10.37 W/m2
19:33 54.6 °F /  12.6 °C 50.8 °F /  10.4 °C 30.17in /  1021.6hPa Calm     87% 0.00in /  0mm WeatherDisplay:10.37 W/m2 SCT
19:34 54.6 °F /  12.6 °C 50.8 °F /  10.4 °C 30.17in /  1021.6hPa Calm     87% 0.00in /  0mm WeatherDisplay:10.37 W/m2
19:38 54.5 °F /  12.5 °C 50.7 °F /  10.4 °C 30.17in /  1021.6hPa Calm     87% 0.00in /  0mm WeatherDisplay:10.37 W/m2 SCT
19:39 54.5 °F /  12.5 °C 51.0 °F /  10.6 °C 30.17in /  1021.6hPa Calm     88% 0.00in /  0mm WeatherDisplay:10.37 W/m2
19:43 54.5 °F /  12.5 °C 51.0 °F /  10.6 °C 30.17in /  1021.6hPa Calm     88% 0.00in /  0mm WeatherDisplay:10.37 W/m2 SCT
19:44 54.5 °F /  12.5 °C 51.0 °F /  10.6 °C 30.17in /  1021.6hPa Calm     88% 0.00in /  0mm WeatherDisplay:10.37 W/m2
19:48 54.4 °F /  12.4 °C 50.9 °F /  10.5 °C 30.17in /  1021.6hPa Calm     88% 0.00in /  0mm WeatherDisplay:10.37 W/m2 SCT
19:49 54.3 °F /  12.4 °C 50.8 °F /  10.4 °C 30.17in /  1021.6hPa Calm     88% 0.00in /  0mm WeatherDisplay:10.37 W/m2
19:53 54.3 °F /  12.4 °C 50.8 °F /  10.4 °C 30.17in /  1021.6hPa Calm     88% 0.00in /  0mm WeatherDisplay:10.37 W/m2 SCT
19:54 54.2 °F /  12.3 °C 50.7 °F /  10.4 °C 30.17in /  1021.6hPa Calm     88% 0.00in /  0mm WeatherDisplay:10.37 W/m2
19:58 54.1 °F /  12.3 °C 50.6 °F /  10.3 °C 30.18in /  1021.9hPa Calm     88% 0.00in /  0mm WeatherDisplay:10.37 W/m2 SCT
19:59 54.0 °F /  12.2 °C 50.5 °F /  10.3 °C 30.18in /  1021.9hPa Calm     88% 0.00in /  0mm WeatherDisplay:10.37 W/m2
20:03 54.0 °F /  12.2 °C 50.5 °F /  10.3 °C 30.17in /  1021.6hPa Calm     88% 0.00in /  0mm WeatherDisplay:10.37 W/m2 SCT
20:08 54.3 °F /  12.4 °C 51.1 °F /  10.6 °C 30.18in /  1021.9hPa Calm     89% 0.00in /  0mm WeatherDisplay:10.37 W/m2 SCT
20:09 54.4 °F /  12.4 °C 50.9 °F /  10.5 °C 30.18in /  1021.9hPa Calm     88% 0.00in /  0mm WeatherDisplay:10.37 W/m2
20:10 54.3 °F /  12.4 °C 50.8 °F /  10.4 °C 30.18in /  1021.9hPa Calm     88% 0.00in /  0mm WeatherDisplay:10.37 W/m2 SCT
20:14 54.3 °F /  12.4 °C 50.8 °F /  10.4 °C 30.18in /  1021.9hPa Calm     88% 0.00in /  0mm WeatherDisplay:10.37 W/m2
20:15 54.2 °F /  12.3 °C 50.7 °F /  10.4 °C 30.18in /  1021.9hPa Calm     88% 0.00in /  0mm WeatherDisplay:10.37 W/m2 SCT
20:19 54.0 °F /  12.2 °C 50.5 °F /  10.3 °C 30.18in /  1021.9hPa Calm     88% 0.00in /  0mm WeatherDisplay:10.37 W/m2
20:20 54.0 °F /  12.2 °C 50.5 °F /  10.3 °C 30.18in /  1021.9hPa Calm     88% 0.00in /  0mm WeatherDisplay:10.37 W/m2 SCT
20:24 53.8 °F /  12.1 °C 50.3 °F /  10.2 °C 30.18in /  1021.9hPa Calm     88% 0.00in /  0mm WeatherDisplay:10.37 W/m2
20:25 53.8 °F /  12.1 °C 50.3 °F /  10.2 °C 30.18in /  1021.9hPa Calm     88% 0.00in /  0mm WeatherDisplay:10.37 W/m2 SCT
20:29 53.6 °F /  12 °C 50.1 °F /  10.1 °C 30.18in /  1021.9hPa Calm     88% 0.00in /  0mm WeatherDisplay:10.37 W/m2
20:30 53.6 °F /  12 °C 50.1 °F /  10.1 °C 30.18in /  1021.9hPa Calm     88% 0.00in /  0mm WeatherDisplay:10.37 W/m2 SCT
20:34 53.4 °F /  11.9 °C 49.9 °F /  9.9 °C 30.18in /  1021.9hPa Calm     88% 0.00in /  0mm WeatherDisplay:10.37 W/m2
20:36 53.3 °F /  11.8 °C 49.8 °F /  9.9 °C 30.18in /  1021.9hPa Calm     88% 0.00in /  0mm WeatherDisplay:10.37 W/m2 SCT
20:39 53.4 °F /  11.9 °C 50.2 °F /  10.1 °C 30.18in /  1021.9hPa Calm     89% 0.00in /  0mm WeatherDisplay:10.37 W/m2
20:41 53.4 °F /  11.9 °C 50.2 °F /  10.1 °C 30.18in /  1021.9hPa Calm     89% 0.00in /  0mm WeatherDisplay:10.37 W/m2 SCT
20:44 53.5 °F /  11.9 °C 50.3 °F /  10.2 °C 30.18in /  1021.9hPa Calm     89% 0.00in /  0mm WeatherDisplay:10.37 W/m2
20:49 53.4 °F /  11.9 °C 50.2 °F /  10.1 °C 30.18in /  1021.9hPa Calm     89% 0.00in /  0mm WeatherDisplay:10.37 W/m2
20:51 53.3 °F /  11.8 °C 50.1 °F /  10.1 °C 30.18in /  1021.9hPa Calm     89% 0.00in /  0mm WeatherDisplay:10.37 W/m2 SCT
20:56 53.2 °F /  11.8 °C 50.0 °F /  10 °C 30.18in /  1021.9hPa Calm     89% 0.00in /  0mm WeatherDisplay:10.37 W/m2 SCT
20:59 53.1 °F /  11.7 °C 49.9 °F /  9.9 °C 30.18in /  1021.9hPa Calm     89% 0.00in /  0mm WeatherDisplay:10.37 W/m2
21:01 53.1 °F /  11.7 °C 50.2 °F /  10.1 °C 30.19in /  1022.2hPa Calm     90% 0.00in /  0mm WeatherDisplay:10.37 W/m2 BKN
21:06 53.3 °F /  11.8 °C 50.4 °F /  10.2 °C 30.19in /  1022.2hPa Calm     90% 0.00in /  0mm WeatherDisplay:10.37 W/m2 BKN
21:09 53.4 °F /  11.9 °C 50.5 °F /  10.3 °C 30.19in /  1022.2hPa Calm     90% 0.00in /  0mm WeatherDisplay:10.37 W/m2
21:14 53.6 °F /  12 °C 50.7 °F /  10.4 °C 30.19in /  1022.2hPa Calm     90% 0.00in /  0mm WeatherDisplay:10.37 W/m2
21:16 53.7 °F /  12.1 °C 50.8 °F /  10.4 °C 30.19in /  1022.2hPa Calm     90% 0.00in /  0mm WeatherDisplay:10.37 W/m2 BKN
21:19 54.1 °F /  12.3 °C 51.5 °F /  10.8 °C 30.19in /  1022.2hPa Calm     91% 0.00in /  0mm WeatherDisplay:10.37 W/m2
21:21 54.2 °F /  12.3 °C 51.6 °F /  10.9 °C 30.19in /  1022.2hPa Calm     91% 0.00in /  0mm WeatherDisplay:10.37 W/m2 BKN
21:26 54.9 °F /  12.7 °C 52.0 °F /  11.1 °C 30.19in /  1022.2hPa Calm     90% 0.00in /  0mm WeatherDisplay:10.37 W/m2 BKN
21:29 55.3 °F /  12.9 °C 52.1 °F /  11.2 °C 30.19in /  1022.2hPa Calm     89% 0.00in /  0mm WeatherDisplay:10.37 W/m2
21:31 55.3 °F /  12.9 °C 51.8 °F /  11 °C 30.19in /  1022.2hPa Calm     88% 0.00in /  0mm WeatherDisplay:10.37 W/m2 BKN
21:34 55.6 °F /  13.1 °C 52.1 °F /  11.2 °C 30.19in /  1022.2hPa Calm     88% 0.00in /  0mm WeatherDisplay:10.37 W/m2
21:36 55.6 °F /  13.1 °C 52.1 °F /  11.2 °C 30.19in /  1022.2hPa Calm     88% 0.00in /  0mm WeatherDisplay:10.37 W/m2 BKN
21:39 55.7 °F /  13.2 °C 51.9 °F /  11.1 °C 30.19in /  1022.2hPa Calm     87% 0.00in /  0mm WeatherDisplay:10.37 W/m2
21:44 55.9 °F /  13.3 °C 52.1 °F /  11.2 °C 30.19in /  1022.2hPa Calm     87% 0.00in /  0mm WeatherDisplay:10.37 W/m2
21:47 55.9 °F /  13.3 °C 52.1 °F /  11.2 °C 30.19in /  1022.2hPa Calm     87% 0.00in /  0mm WeatherDisplay:10.37 W/m2 BKN
21:49 55.9 °F /  13.3 °C 51.8 °F /  11 °C 30.19in /  1022.2hPa Calm     86% 0.00in /  0mm WeatherDisplay:10.37 W/m2
21:52 55.9 °F /  13.3 °C 51.8 °F /  11 °C 30.19in /  1022.2hPa Calm     86% 0.00in /  0mm WeatherDisplay:10.37 W/m2 BKN
21:54 55.7 °F /  13.2 °C 51.6 °F /  10.9 °C 30.20in /  1022.6hPa Calm     86% 0.00in /  0mm WeatherDisplay:10.37 W/m2
21:57 55.6 °F /  13.1 °C 51.5 °F /  10.8 °C 30.20in /  1022.6hPa Calm     86% 0.00in /  0mm WeatherDisplay:10.37 W/m2 BKN
21:59 55.4 °F /  13 °C 51.3 °F /  10.7 °C 30.20in /  1022.6hPa Calm     86% 0.00in /  0mm WeatherDisplay:10.37 W/m2
22:02 55.3 °F /  12.9 °C 51.5 °F /  10.8 °C 30.20in /  1022.6hPa Calm     87% 0.00in /  0mm WeatherDisplay:10.37 W/m2 BKN
22:04 55.2 °F /  12.9 °C 51.4 °F /  10.8 °C 30.20in /  1022.6hPa Calm     87% 0.00in /  0mm WeatherDisplay:10.37 W/m2
22:07 55.1 °F /  12.8 °C 51.3 °F /  10.7 °C 30.20in /  1022.6hPa Calm     87% 0.00in /  0mm WeatherDisplay:10.37 W/m2 BKN
22:09 55.0 °F /  12.8 °C 51.2 °F /  10.7 °C 30.20in /  1022.6hPa Calm     87% 0.00in /  0mm WeatherDisplay:10.37 W/m2
22:17 54.9 °F /  12.7 °C 51.4 °F /  10.8 °C 30.20in /  1022.6hPa Calm     88% 0.00in /  0mm WeatherDisplay:10.37 W/m2 BKN
22:19 54.9 °F /  12.7 °C 51.4 °F /  10.8 °C 30.20in /  1022.6hPa Calm     88% 0.00in /  0mm WeatherDisplay:10.37 W/m2
22:24 54.9 °F /  12.7 °C 51.4 °F /  10.8 °C 30.20in /  1022.6hPa Calm     88% 0.00in /  0mm WeatherDisplay:10.37 W/m2 BKN
22:29 54.7 °F /  12.6 °C 51.2 °F /  10.7 °C 30.20in /  1022.6hPa Calm     88% 0.00in /  0mm WeatherDisplay:10.37 W/m2
22:34 54.5 °F /  12.5 °C 51.0 °F /  10.6 °C 30.20in /  1022.6hPa Calm     88% 0.00in /  0mm WeatherDisplay:10.37 W/m2 BKN
22:39 54.3 °F /  12.4 °C 50.8 °F /  10.4 °C 30.20in /  1022.6hPa Calm     88% 0.00in /  0mm WeatherDisplay:10.37 W/m2 BKN
22:44 54.0 °F /  12.2 °C 50.5 °F /  10.3 °C 30.20in /  1022.6hPa Calm     88% 0.00in /  0mm WeatherDisplay:10.37 W/m2 BKN
22:49 53.7 °F /  12.1 °C 50.2 °F /  10.1 °C 30.20in /  1022.6hPa Calm     88% 0.00in /  0mm WeatherDisplay:10.37 W/m2 BKN
22:54 53.4 °F /  11.9 °C 49.9 °F /  9.9 °C 30.21in /  1022.9hPa Calm     88% 0.00in /  0mm WeatherDisplay:10.37 W/m2
23:03 53.2 °F /  11.8 °C 50.0 °F /  10 °C 30.21in /  1022.9hPa Calm     89% 0.00in /  0mm WeatherDisplay:10.37 W/m2 BKN
23:08 53.0 °F /  11.7 °C 49.8 °F /  9.9 °C 30.21in /  1022.9hPa Calm     89% 0.00in /  0mm WeatherDisplay:10.37 W/m2 BKN
23:23 53.1 °F /  11.7 °C 50.2 °F /  10.1 °C 30.20in /  1022.6hPa Calm     90% 0.00in /  0mm WeatherDisplay:10.37 W/m2 BKN
23:29 53.1 °F /  11.7 °C 50.2 °F /  10.1 °C 30.20in /  1022.6hPa Calm     90% 0.00in /  0mm WeatherDisplay:10.37 W/m2 BKN
23:34 52.9 °F /  11.6 °C 50.0 °F /  10 °C 30.20in /  1022.6hPa Calm     90% 0.00in /  0mm WeatherDisplay:10.37 W/m2 BKN
23:39 52.6 °F /  11.4 °C 49.8 °F /  9.9 °C 30.20in /  1022.6hPa Calm     90% 0.00in /  0mm WeatherDisplay:10.37 W/m2 BKN
23:44 52.4 °F /  11.3 °C 49.6 °F /  9.8 °C 30.20in /  1022.6hPa Calm     90% 0.00in /  0mm WeatherDisplay:10.37 W/m2 BKN
23:49 52.1 °F /  11.2 °C 49.3 °F /  9.6 °C 30.20in /  1022.6hPa Calm     90% 0.00in /  0mm WeatherDisplay:10.37 W/m2 BKN
23:54 52.0 °F /  11.1 °C 49.2 °F /  9.6 °C 30.20in /  1022.6hPa Calm     90% 0.00in /  0mm WeatherDisplay:10.37 W/m2 BKN
23:59 51.8 °F /  11 °C 49.0 °F /  9.4 °C 30.20in /  1022.6hPa Calm     90% 0.00in /  0mm WeatherDisplay:10.37 W/m2 BKN
Piedmont Bend
Compliments of Weather Underground - 4 mb